Terminal Aerodrome Forecast
Issued by NWS

Home | Current Version | Previous Version | Text Only | Print | Product List | Glossary Off
Versions: 1 2 3 4 5 6 7 8 9 10 11 12 13 14 15 16 17 18 19 20 21 22 23 24 25 26 27

000
FTUS43 KABR 230349 AAD
TAFATY
TAF AMD
KATY 230349Z 2304/2324 30006KT P6SM FEW040 SCT100 OVC200
     FM230430 30006KT P6SM -SHRA VCTS FEW040 BKN080CB OVC200
     FM230530 30006KT P6SM BKN090
     FM230700 31006KT P6SM SHRA VCTS BKN080CB OVC150
     FM230900 34007KT P6SM SHRA VCTS BKN010CB OVC090
     FM231100 02007KT P6SM OVC030
     FM231200 03007KT P6SM VCSH OVC010
     FM231400 03006KT P6SM OVC008
     FM231600 04006KT P6SM -SHRA OVC008
     FM231800 03008KT 6SM SHRA OVC008
     FM231900 03008KT 5SM SHRA OVC010
     FM232100 03009KT P6SM SHRA OVC008=

USA.gov is the U.S. government's official web portal to all federal, state and local government web resources and services.